Time,TemperatureF,DewpointF,PressureIn,WindDirection,WindDirectionDegrees,WindSpeedMPH,WindSpeedGustMPH,Humidity,HourlyPrecipIn,Conditions,Clouds,dailyrainin,SoftwareType,DateUTC
2013-06-04 00:01:00,61.2,35.4,29.72,NW,308,0.0,0.0,38,0.00,,,0.00,WeatherCatV1.14B232,2013-06-04 06:01:00,
2013-06-04 00:06:00,60.6,35.5,29.72,NW,307,0.0,0.0,39,0.00,,,0.00,WeatherCatV1.14B232,2013-06-04 06:06:00,
2013-06-04 00:11:00,59.6,36.5,29.73,SSE,159,1.0,1.0,42,0.00,,,0.00,WeatherCatV1.14B232,2013-06-04 06:11:00,
2013-06-04 00:16:00,58.7,37.4,29.73,NNE,13,0.0,0.0,45,0.00,,,0.00,WeatherCatV1.14B232,2013-06-04 06:16:00,
2013-06-04 00:21:00,58.0,37.9,29.73,SSE,160,0.0,0.0,47,0.00,,,0.00,WeatherCatV1.14B232,2013-06-04 06:21:00,
2013-06-04 00:26:00,57.2,38.7,29.73,NNW,332,0.0,0.0,50,0.00,,,0.00,WeatherCatV1.14B232,2013-06-04 06:26:00,
2013-06-04 00:31:00,56.4,38.5,29.73,NNW,332,0.0,0.0,51,0.00,,,0.00,WeatherCatV1.14B232,2013-06-04 06:31:00,
2013-06-04 00:36:00,55.7,36.8,29.73,NW,309,1.0,1.0,49,0.00,,,0.00,WeatherCatV1.14B232,2013-06-04 06:36:00,
2013-06-04 00:41:00,55.2,37.4,29.73,North,8,1.0,1.0,51,0.00,,,0.00,WeatherCatV1.14B232,2013-06-04 06:41:00,
2013-06-04 00:46:00,55.0,36.2,29.74,NW,312,0.0,1.0,49,0.00,,,0.00,WeatherCatV1.14B232,2013-06-04 06:46:00,
2013-06-04 00:51:00,54.8,36.5,29.74,NW,312,0.0,0.0,50,0.00,,,0.00,WeatherCatV1.14B232,2013-06-04 06:51:00,
2013-06-04 00:56:00,54.3,36.6,29.74,NW,312,0.0,0.0,51,0.00,,,0.00,WeatherCatV1.14B232,2013-06-04 06:56:00,
2013-06-04 01:01:00,53.6,37.4,29.74,NW,312,0.0,0.0,54,0.00,,,0.00,WeatherCatV1.14B232,2013-06-04 07:01:00,
2013-06-04 01:06:00,52.8,38.0,29.74,NW,312,0.0,0.0,57,0.00,,,0.00,WeatherCatV1.14B232,2013-06-04 07:06:00,
2013-06-04 01:11:00,52.0,37.7,29.74,NW,311,0.0,0.0,58,0.00,,,0.00,WeatherCatV1.14B232,2013-06-04 07:11:00,
2013-06-04 01:16:00,51.9,38.0,29.74,NNE,14,0.0,1.0,59,0.00,,,0.00,WeatherCatV1.14B232,2013-06-04 07:16:00,
2013-06-04 01:21:00,51.4,38.0,29.74,NNE,13,0.0,0.0,60,0.00,,,0.00,WeatherCatV1.14B232,2013-06-04 07:21:00,
2013-06-04 01:26:00,50.8,38.3,29.74,NNE,13,0.0,0.0,62,0.00,,,0.00,WeatherCatV1.14B232,2013-06-04 07:26:00,
2013-06-04 01:31:00,50.1,38.0,29.74,NNE,14,0.0,0.0,63,0.00,,,0.00,WeatherCatV1.14B232,2013-06-04 07:31:00,
2013-06-04 01:36:00,49.6,36.7,29.74,NNW,342,1.0,1.0,61,0.00,,,0.00,WeatherCatV1.14B232,2013-06-04 07:36:00,
2013-06-04 01:41:00,49.4,36.5,29.74,NNW,340,0.0,0.0,61,0.00,,,0.00,WeatherCatV1.14B232,2013-06-04 07:41:00,
2013-06-04 01:46:00,49.5,37.0,29.74,NNW,340,0.0,0.0,62,0.00,,,0.00,WeatherCatV1.14B232,2013-06-04 07:46:00,
2013-06-04 01:51:00,48.7,38.6,29.74,South,176,0.0,0.0,68,0.00,,,0.00,WeatherCatV1.14B232,2013-06-04 07:51:00,
2013-06-04 01:56:00,47.9,38.2,29.75,South,176,0.0,0.0,69,0.00,,,0.00,WeatherCatV1.14B232,2013-06-04 07:56:00,
2013-06-04 02:01:00,47.3,37.7,29.75,South,176,0.0,0.0,69,0.00,,,0.00,WeatherCatV1.14B232,2013-06-04 08:01:00,
2013-06-04 02:06:00,46.9,38.0,29.75,South,176,0.0,0.0,71,0.00,,,0.00,WeatherCatV1.14B232,2013-06-04 08:06:00,
2013-06-04 02:11:00,46.5,38.0,29.75,South,176,0.0,0.0,72,0.00,,,0.00,WeatherCatV1.14B232,2013-06-04 08:11:00,
2013-06-04 02:16:00,46.1,38.3,29.75,South,176,0.0,0.0,74,0.00,,,0.00,WeatherCatV1.14B232,2013-06-04 08:16:00,
2013-06-04 02:21:00,45.8,39.3,29.75,South,176,0.0,0.0,78,0.00,,,0.00,WeatherCatV1.14B232,2013-06-04 08:21:00,
2013-06-04 02:26:00,45.3,38.5,29.75,South,176,0.0,0.0,77,0.00,,,0.00,WeatherCatV1.14B232,2013-06-04 08:26:00,
2013-06-04 02:31:00,44.7,38.3,29.75,South,176,0.0,0.0,78,0.00,,,0.00,WeatherCatV1.14B232,2013-06-04 08:31:00,
2013-06-04 02:36:00,44.2,37.5,29.75,South,176,0.0,0.0,77,0.00,,,0.00,WeatherCatV1.14B232,2013-06-04 08:36:00,
2013-06-04 02:41:00,44.2,37.8,29.75,West,262,0.0,0.0,78,0.00,,,0.00,WeatherCatV1.14B232,2013-06-04 08:41:00,
2013-06-04 02:46:00,44.3,37.9,29.75,North,6,0.0,0.0,78,0.00,,,0.00,WeatherCatV1.14B232,2013-06-04 08:46:00,
2013-06-04 02:51:00,44.9,36.1,29.75,WNW,301,0.0,2.0,71,0.00,,,0.00,WeatherCatV1.14B232,2013-06-04 08:51:00,
2013-06-04 02:56:00,46.1,36.5,29.75,North,5,0.0,1.0,69,0.00,,,0.00,WeatherCatV1.14B232,2013-06-04 08:56:00,
2013-06-04 03:01:00,46.2,38.0,29.75,North,4,0.0,0.0,73,0.00,,,0.00,WeatherCatV1.14B232,2013-06-04 09:01:00,
2013-06-04 03:06:00,45.1,38.0,29.75,SSW,195,1.0,1.0,76,0.00,,,0.00,WeatherCatV1.14B232,2013-06-04 09:06:00,
2013-06-04 03:11:00,44.1,37.7,29.75,SSW,195,0.0,0.0,78,0.00,,,0.00,WeatherCatV1.14B232,2013-06-04 09:11:00,
2013-06-04 03:16:00,43.6,37.2,29.76,ESE,107,0.0,0.0,78,0.00,,,0.00,WeatherCatV1.14B232,2013-06-04 09:16:00,
2013-06-04 03:21:00,43.2,37.1,29.76,ESE,108,0.0,0.0,79,0.00,,,0.00,WeatherCatV1.14B232,2013-06-04 09:21:00,
2013-06-04 03:26:00,42.7,37.3,29.76,ESE,107,0.0,1.0,81,0.00,,,0.00,WeatherCatV1.14B232,2013-06-04 09:26:00,
2013-06-04 03:31:00,42.9,37.5,29.76,South,178,0.0,0.0,81,0.00,,,0.00,WeatherCatV1.14B232,2013-06-04 09:31:00,
2013-06-04 03:36:00,42.4,37.0,29.76,South,177,0.0,0.0,81,0.00,,,0.00,WeatherCatV1.14B232,2013-06-04 09:36:00,
2013-06-04 03:41:00,42.0,36.6,29.76,South,177,0.0,0.0,81,0.00,,,0.00,WeatherCatV1.14B232,2013-06-04 09:41:00,
2013-06-04 03:46:00,41.7,36.9,29.76,South,178,0.0,0.0,83,0.00,,,0.00,WeatherCatV1.14B232,2013-06-04 09:46:00,
2013-06-04 03:51:00,41.3,36.2,29.76,South,177,0.0,0.0,82,0.00,,,0.00,WeatherCatV1.14B232,2013-06-04 09:51:00,
2013-06-04 03:56:00,41.1,36.9,29.76,South,177,0.0,0.0,85,0.00,,,0.00,WeatherCatV1.14B232,2013-06-04 09:56:00,
2013-06-04 04:01:00,40.9,36.4,29.76,South,178,0.0,0.0,84,0.00,,,0.00,WeatherCatV1.14B232,2013-06-04 10:01:00,
2013-06-04 04:06:00,40.6,35.8,29.77,South,177,0.0,0.0,83,0.00,,,0.00,WeatherCatV1.14B232,2013-06-04 10:06:00,
2013-06-04 04:11:00,40.3,35.9,29.76,South,177,0.0,0.0,84,0.00,,,0.00,WeatherCatV1.14B232,2013-06-04 10:11:00,
2013-06-04 04:16:00,40.1,36.3,29.76,South,178,0.0,0.0,86,0.00,,,0.00,WeatherCatV1.14B232,2013-06-04 10:16:00,
2013-06-04 04:21:00,39.9,36.1,29.77,South,177,0.0,0.0,86,0.00,,,0.00,WeatherCatV1.14B232,2013-06-04 10:21:00,
2013-06-04 04:26:00,39.6,35.5,29.77,South,177,0.0,0.0,85,0.00,,,0.00,WeatherCatV1.14B232,2013-06-04 10:26:00,
2013-06-04 04:31:00,39.5,35.7,29.77,South,178,0.0,0.0,86,0.00,,,0.00,WeatherCatV1.14B232,2013-06-04 10:31:00,
2013-06-04 04:36:00,39.4,35.6,29.77,South,181,1.0,2.0,86,0.00,,,0.00,WeatherCatV1.14B232,2013-06-04 10:36:00,
2013-06-04 04:41:00,39.3,35.5,29.77,SSE,167,1.0,1.0,86,0.00,,,0.00,WeatherCatV1.14B232,2013-06-04 10:41:00,
2013-06-04 04:46:00,39.2,35.4,29.77,SSE,166,0.0,0.0,86,0.00,,,0.00,WeatherCatV1.14B232,2013-06-04 10:46:00,
2013-06-04 04:51:00,39.1,35.3,29.77,SSE,168,0.0,1.0,86,0.00,,,0.00,WeatherCatV1.14B232,2013-06-04 10:51:00,
2013-06-04 04:56:00,39.1,35.0,29.77,SSE,167,0.0,0.0,85,0.00,,,0.00,WeatherCatV1.14B232,2013-06-04 10:56:00,
2013-06-04 05:01:00,38.9,34.8,29.77,SSE,168,0.0,0.0,85,0.00,,,0.00,WeatherCatV1.14B232,2013-06-04 11:01:00,
2013-06-04 05:06:00,38.8,35.0,29.77,South,174,0.0,0.0,86,0.00,,,0.00,WeatherCatV1.14B232,2013-06-04 11:06:00,
2013-06-04 05:11:00,38.6,34.8,29.78,South,170,0.0,0.0,86,0.00,,,0.00,WeatherCatV1.14B232,2013-06-04 11:11:00,
2013-06-04 05:16:00,38.4,34.3,29.78,South,170,0.0,0.0,85,0.00,,,0.00,WeatherCatV1.14B232,2013-06-04 11:16:00,
2013-06-04 05:21:00,38.3,34.8,29.78,South,169,0.0,1.0,87,0.00,,,0.00,WeatherCatV1.14B232,2013-06-04 11:21:00,
2013-06-04 05:26:00,38.2,34.7,29.78,SW,231,0.0,0.0,87,0.00,,,0.00,WeatherCatV1.14B232,2013-06-04 11:26:00,
2013-06-04 05:31:00,38.1,34.6,29.78,South,170,1.0,1.0,87,0.00,,,0.00,WeatherCatV1.14B232,2013-06-04 11:31:00,
2013-06-04 05:36:00,38.0,34.2,29.78,SSW,193,0.0,0.0,86,0.00,,,0.00,WeatherCatV1.14B232,2013-06-04 11:36:00,
2013-06-04 05:41:00,38.1,34.0,29.78,SW,236,0.0,2.0,85,0.00,,,0.00,WeatherCatV1.14B232,2013-06-04 11:41:00,
2013-06-04 05:46:00,38.2,33.2,29.78,SW,219,0.0,2.0,82,0.00,,,0.00,WeatherCatV1.14B232,2013-06-04 11:46:00,
2013-06-04 05:51:00,38.4,34.0,29.78,SW,219,0.0,0.0,84,0.00,,,0.00,WeatherCatV1.14B232,2013-06-04 11:51:00,
2013-06-04 05:56:00,38.4,34.0,29.78,East,98,0.0,1.0,84,0.00,,,0.00,WeatherCatV1.14B232,2013-06-04 11:56:00,
2013-06-04 06:01:00,38.3,34.2,29.79,SW,236,0.0,0.0,85,0.00,,,0.00,WeatherCatV1.14B232,2013-06-04 12:01:00,
2013-06-04 06:06:00,38.1,34.3,29.79,WSW,243,0.0,0.0,86,0.00,,,0.00,WeatherCatV1.14B232,2013-06-04 12:06:00,
2013-06-04 06:11:00,38.0,33.9,29.78,WSW,243,0.0,0.0,85,0.00,,,0.00,WeatherCatV1.14B232,2013-06-04 12:11:00,
2013-06-04 06:16:00,38.3,34.5,29.79,NE,53,0.0,0.0,86,0.00,,,0.00,WeatherCatV1.14B232,2013-06-04 12:16:00,
2013-06-04 06:21:00,38.5,34.7,29.79,NE,53,0.0,0.0,86,0.00,,,0.00,WeatherCatV1.14B232,2013-06-04 12:21:00,
2013-06-04 06:26:00,38.7,34.9,29.79,NE,52,0.0,0.0,86,0.00,,,0.00,WeatherCatV1.14B232,2013-06-04 12:26:00,
2013-06-04 06:31:00,39.1,35.0,29.80,South,175,0.0,0.0,85,0.00,,,0.00,WeatherCatV1.14B232,2013-06-04 12:31:00,
2013-06-04 06:36:00,40.0,35.3,29.80,ESE,103,0.0,0.0,83,0.00,,,0.00,WeatherCatV1.14B232,2013-06-04 12:36:00,
2013-06-04 06:41:00,41.5,35.5,29.80,ESE,103,0.0,0.0,79,0.00,,,0.00,WeatherCatV1.14B232,2013-06-04 12:41:00,
2013-06-04 06:46:00,42.0,35.3,29.80,South,172,1.0,1.0,77,0.00,,,0.00,WeatherCatV1.14B232,2013-06-04 12:46:00,
2013-06-04 06:51:00,41.9,35.5,29.80,South,173,0.0,0.0,78,0.00,,,0.00,WeatherCatV1.14B232,2013-06-04 12:51:00,
2013-06-04 06:56:00,41.8,35.5,29.80,SSW,197,0.0,1.0,78,0.00,,,0.00,WeatherCatV1.14B232,2013-06-04 12:56:00,
2013-06-04 07:01:00,42.0,36.0,29.80,SSE,163,0.0,0.0,79,0.00,,,0.00,WeatherCatV1.14B232,2013-06-04 13:01:00,
2013-06-04 07:06:00,42.4,36.0,29.80,South,190,0.0,1.0,78,0.00,,,0.00,WeatherCatV1.14B232,2013-06-04 13:06:00,
2013-06-04 07:11:00,43.2,36.5,29.80,SSE,150,0.0,0.0,77,0.00,,,0.00,WeatherCatV1.14B232,2013-06-04 13:11:00,
2013-06-04 07:16:00,44.1,36.7,29.80,East,101,0.0,0.0,75,0.00,,,0.00,WeatherCatV1.14B232,2013-06-04 13:16:00,
2013-06-04 07:21:00,44.8,36.7,29.81,ESE,102,0.0,0.0,73,0.00,,,0.00,WeatherCatV1.14B232,2013-06-04 13:21:00,
2013-06-04 07:26:00,45.0,36.5,29.81,East,101,0.0,0.0,72,0.00,,,0.00,WeatherCatV1.14B232,2013-06-04 13:26:00,
2013-06-04 07:31:00,45.6,36.4,29.80,ESE,102,0.0,0.0,70,0.00,,,0.00,WeatherCatV1.14B232,2013-06-04 13:31:00,
2013-06-04 07:36:00,46.5,37.3,29.80,ESE,102,0.0,0.0,70,0.00,,,0.00,WeatherCatV1.14B232,2013-06-04 13:36:00,
2013-06-04 07:41:00,48.0,37.2,29.81,East,101,0.0,0.0,66,0.00,,,0.00,WeatherCatV1.14B232,2013-06-04 13:41:00,
2013-06-04 07:46:00,49.8,37.3,29.81,East,100,0.0,1.0,62,0.00,,,0.00,WeatherCatV1.14B232,2013-06-04 13:46:00,
2013-06-04 07:51:00,50.4,37.5,29.81,East,101,0.0,0.0,61,0.00,,,0.00,WeatherCatV1.14B232,2013-06-04 13:51:00,
2013-06-04 07:56:00,51.0,37.6,29.81,SSE,165,1.0,1.0,60,0.00,,,0.00,WeatherCatV1.14B232,2013-06-04 13:56:00,
2013-06-04 08:01:00,50.8,37.4,29.81,South,174,0.0,0.0,60,0.00,,,0.00,WeatherCatV1.14B232,2013-06-04 14:01:00,
2013-06-04 08:06:00,50.9,37.9,29.80,South,174,0.0,0.0,61,0.00,,,0.00,WeatherCatV1.14B232,2013-06-04 14:06:00,
2013-06-04 08:11:00,51.7,38.7,29.80,South,174,0.0,0.0,61,0.00,,,0.00,WeatherCatV1.14B232,2013-06-04 14:11:00,
2013-06-04 08:16:00,52.1,37.8,29.80,South,174,0.0,0.0,58,0.00,,,0.00,WeatherCatV1.14B232,2013-06-04 14:16:00,
2013-06-04 08:21:00,52.9,37.2,29.80,NNE,19,1.0,1.0,55,0.00,,,0.00,WeatherCatV1.14B232,2013-06-04 14:21:00,
2013-06-04 08:26:00,53.2,36.5,29.80,NNW,345,0.0,1.0,53,0.00,,,0.00,WeatherCatV1.14B232,2013-06-04 14:26:00,
2013-06-04 08:31:00,53.9,36.7,29.80,East,89,0.0,1.0,52,0.00,,,0.00,WeatherCatV1.14B232,2013-06-04 14:31:00,
2013-06-04 08:36:00,54.9,37.6,29.80,NE,41,1.0,3.0,52,0.00,,,0.00,WeatherCatV1.14B232,2013-06-04 14:36:00,
2013-06-04 08:42:00,56.0,37.1,29.80,NNW,332,0.0,0.0,49,0.00,,,0.00,WeatherCatV1.14B232,2013-06-04 14:42:00,
2013-06-04 08:47:00,57.4,37.3,29.79,NNE,22,0.0,1.0,47,0.00,,,0.00,WeatherCatV1.14B232,2013-06-04 14:47:00,
2013-06-04 08:52:00,58.0,36.8,29.79,NNE,20,1.0,2.0,45,0.00,,,0.00,WeatherCatV1.14B232,2013-06-04 14:52:00,
2013-06-04 08:57:00,57.9,36.7,29.79,NNW,346,0.0,1.0,45,0.00,,,0.00,WeatherCatV1.14B232,2013-06-04 14:57:00,
2013-06-04 09:02:00,58.7,37.4,29.78,North,357,2.0,2.0,45,0.00,,,0.00,WeatherCatV1.14B232,2013-06-04 15:02:00,
2013-06-04 09:07:00,59.4,35.7,29.78,NW,322,0.0,1.0,41,0.00,,,0.00,WeatherCatV1.14B232,2013-06-04 15:07:00,
2013-06-04 09:12:00,60.3,36.5,29.78,NNW,333,0.0,1.0,41,0.00,,,0.00,WeatherCatV1.14B232,2013-06-04 15:12:00,
2013-06-04 09:17:00,61.2,38.5,29.78,East,80,0.0,1.0,43,0.00,,,0.00,WeatherCatV1.14B232,2013-06-04 15:17:00,
2013-06-04 09:22:00,61.8,35.3,29.78,North,4,2.0,3.0,37,0.00,,,0.00,WeatherCatV1.14B232,2013-06-04 15:22:00,
2013-06-04 09:27:00,61.2,35.4,29.78,NNW,336,1.0,1.0,38,0.00,,,0.00,WeatherCatV1.14B232,2013-06-04 15:27:00,
2013-06-04 09:32:00,61.9,36.0,29.78,SE,139,0.0,1.0,38,0.00,,,0.00,WeatherCatV1.14B232,2013-06-04 15:32:00,
2013-06-04 09:37:00,62.5,36.5,29.78,NNW,338,1.0,2.0,38,0.00,,,0.00,WeatherCatV1.14B232,2013-06-04 15:37:00,
2013-06-04 09:42:00,62.9,36.2,29.78,NNE,30,1.0,1.0,37,0.00,,,0.00,WeatherCatV1.14B232,2013-06-04 15:42:00,
2013-06-04 09:47:00,63.8,37.7,29.77,NNE,16,1.0,1.0,38,0.00,,,0.00,WeatherCatV1.14B232,2013-06-04 15:47:00,
2013-06-04 09:52:00,64.4,35.4,29.77,South,186,3.0,3.0,34,0.00,,,0.00,WeatherCatV1.14B232,2013-06-04 15:52:00,
2013-06-04 09:57:00,65.2,36.1,29.77,SSE,148,0.0,2.0,34,0.00,,,0.00,WeatherCatV1.14B232,2013-06-04 15:57:00,
2013-06-04 10:02:00,65.9,38.2,29.76,NW,304,1.0,2.0,36,0.00,,,0.00,WeatherCatV1.14B232,2013-06-04 16:02:00,
2013-06-04 10:07:00,65.8,34.3,29.76,WNW,290,0.0,2.0,31,0.00,,,0.00,WeatherCatV1.14B232,2013-06-04 16:07:00,
2013-06-04 10:12:00,65.6,34.1,29.76,East,99,0.0,1.0,31,0.00,,,0.00,WeatherCatV1.14B232,2013-06-04 16:12:00,
2013-06-04 10:17:00,66.3,34.8,29.76,NNE,18,0.0,1.0,31,0.00,,,0.00,WeatherCatV1.14B232,2013-06-04 16:17:00,
2013-06-04 10:22:00,67.5,37.4,29.75,SE,135,2.0,2.0,33,0.00,,,0.00,WeatherCatV1.14B232,2013-06-04 16:22:00,
2013-06-04 10:27:00,69.2,35.6,29.75,South,181,1.0,2.0,29,0.00,,,0.00,WeatherCatV1.14B232,2013-06-04 16:27:00,
2013-06-04 10:32:00,68.8,34.4,29.75,South,191,1.0,3.0,28,0.00,,,0.00,WeatherCatV1.14B232,2013-06-04 16:32:00,
2013-06-04 10:37:00,68.8,35.2,29.75,East,95,2.0,2.0,29,0.00,,,0.00,WeatherCatV1.14B232,2013-06-04 16:37:00,
2013-06-04 10:42:00,68.8,34.4,29.75,West,270,1.0,2.0,28,0.00,,,0.00,WeatherCatV1.14B232,2013-06-04 16:42:00,
2013-06-04 10:47:00,68.9,33.5,29.75,South,170,0.0,1.0,27,0.00,,,0.00,WeatherCatV1.14B232,2013-06-04 16:47:00,
2013-06-04 10:52:00,70.3,34.7,29.75,SSE,162,1.0,3.0,27,0.00,,,0.00,WeatherCatV1.14B232,2013-06-04 16:52:00,
2013-06-04 10:57:00,70.3,35.6,29.74,NW,315,3.0,3.0,28,0.00,,,0.00,WeatherCatV1.14B232,2013-06-04 16:57:00,
2013-06-04 11:02:00,70.2,36.4,29.74,NNE,33,1.0,2.0,29,0.00,,,0.00,WeatherCatV1.14B232,2013-06-04 17:02:00,
2013-06-04 11:07:00,70.4,38.3,29.74,WNW,290,1.0,2.0,31,0.00,,,0.00,WeatherCatV1.14B232,2013-06-04 17:07:00,
2013-06-04 11:12:00,69.9,37.0,29.74,WSW,250,1.0,1.0,30,0.00,,,0.00,WeatherCatV1.14B232,2013-06-04 17:12:00,
2013-06-04 11:17:00,69.6,36.8,29.74,SSW,198,0.0,0.0,30,0.00,,,0.00,WeatherCatV1.14B232,2013-06-04 17:17:00,
2013-06-04 11:22:00,70.1,35.5,29.74,WNW,294,0.0,2.0,28,0.00,,,0.00,WeatherCatV1.14B232,2013-06-04 17:22:00,
2013-06-04 11:27:00,70.4,36.6,29.73,SW,236,1.0,1.0,29,0.00,,,0.00,WeatherCatV1.14B232,2013-06-04 17:27:00,
2013-06-04 11:32:00,71.0,37.1,29.73,SE,130,2.0,2.0,29,0.00,,,0.00,WeatherCatV1.14B232,2013-06-04 17:32:00,
2013-06-04 11:37:00,71.2,38.2,29.73,West,271,0.0,1.0,30,0.00,,,0.00,WeatherCatV1.14B232,2013-06-04 17:37:00,
2013-06-04 11:42:00,72.5,36.6,29.72,WNW,300,1.0,1.0,27,0.00,,,0.00,WeatherCatV1.14B232,2013-06-04 17:42:00,
2013-06-04 11:47:00,73.1,37.1,29.72,West,280,0.0,0.0,27,0.00,,,0.00,WeatherCatV1.14B232,2013-06-04 17:47:00,
2013-06-04 11:52:00,74.1,37.0,29.71,WNW,300,1.0,1.0,26,0.00,,,0.00,WeatherCatV1.14B232,2013-06-04 17:52:00,
2013-06-04 11:57:00,74.6,36.4,29.71,East,81,1.0,2.0,25,0.00,,,0.00,WeatherCatV1.14B232,2013-06-04 17:57:00,
2013-06-04 12:02:00,74.6,38.4,29.71,NNW,328,2.0,3.0,27,0.00,,,0.00,WeatherCatV1.14B232,2013-06-04 18:02:00,
2013-06-04 12:07:00,74.4,37.3,29.71,WSW,252,0.0,1.0,26,0.00,,,0.00,WeatherCatV1.14B232,2013-06-04 18:07:00,
2013-06-04 12:12:00,75.1,37.9,29.70,ESE,113,0.0,1.0,26,0.00,,,0.00,WeatherCatV1.14B232,2013-06-04 18:12:00,
2013-06-04 12:17:00,75.5,37.2,29.70,NW,325,1.0,2.0,25,0.00,,,0.00,WeatherCatV1.14B232,2013-06-04 18:17:00,
2013-06-04 12:22:00,75.9,41.3,29.69,SE,124,1.0,1.0,29,0.00,,,0.00,WeatherCatV1.14B232,2013-06-04 18:22:00,
2013-06-04 12:27:00,76.4,39.9,29.69,West,266,0.0,1.0,27,0.00,,,0.00,WeatherCatV1.14B232,2013-06-04 18:27:00,
2013-06-04 12:32:00,76.6,37.1,29.69,SSE,160,0.0,3.0,24,0.00,,,0.00,WeatherCatV1.14B232,2013-06-04 18:32:00,
2013-06-04 12:37:00,76.9,38.4,29.68,SSW,203,0.0,1.0,25,0.00,,,0.00,WeatherCatV1.14B232,2013-06-04 18:37:00,
2013-06-04 12:42:00,77.1,39.6,29.68,West,259,0.0,0.0,26,0.00,,,0.00,WeatherCatV1.14B232,2013-06-04 18:42:00,
2013-06-04 12:47:00,77.3,35.5,29.68,NNW,340,0.0,5.0,22,0.00,,,0.00,WeatherCatV1.14B232,2013-06-04 18:47:00,
2013-06-04 12:52:00,76.4,32.4,29.68,NNE,13,0.0,2.0,20,0.00,,,0.00,WeatherCatV1.14B232,2013-06-04 18:52:00,
2013-06-04 12:57:00,76.0,34.4,29.68,NNE,32,2.0,4.0,22,0.00,,,0.00,WeatherCatV1.14B232,2013-06-04 18:57:00,
2013-06-04 13:02:00,76.2,36.8,29.68,NW,312,1.0,5.0,24,0.00,,,0.00,WeatherCatV1.14B232,2013-06-04 19:02:00,
2013-06-04 13:07:00,77.4,37.8,29.68,SSE,152,4.0,6.0,24,0.00,,,0.00,WeatherCatV1.14B232,2013-06-04 19:07:00,
2013-06-04 13:12:00,77.4,33.2,29.68,WNW,291,3.0,5.0,20,0.00,,,0.00,WeatherCatV1.14B232,2013-06-04 19:12:00,
2013-06-04 13:17:00,77.9,33.6,29.67,NNE,32,6.0,8.0,20,0.00,,,0.00,WeatherCatV1.14B232,2013-06-04 19:17:00,
2013-06-04 13:22:00,78.2,32.6,29.67,SW,222,4.0,7.0,19,0.00,,,0.00,WeatherCatV1.14B232,2013-06-04 19:22:00,
2013-06-04 13:27:00,78.0,32.4,29.67,NW,316,7.0,13.0,19,0.00,,,0.00,WeatherCatV1.14B232,2013-06-04 19:27:00,
2013-06-04 13:32:00,77.7,32.1,29.67,South,183,8.0,12.0,19,0.00,,,0.00,WeatherCatV1.14B232,2013-06-04 19:32:00,
2013-06-04 13:37:00,77.9,33.6,29.67,South,169,9.0,17.0,20,0.00,,,0.00,WeatherCatV1.14B232,2013-06-04 19:37:00,
2013-06-04 13:38:00,77.9,33.6,29.67,WSW,257,7.0,17.0,20,0.00,,,0.00,WeatherCatV1.14B232,2013-06-04 19:38:00,
2013-06-04 13:41:00,78.2,33.8,29.67,ENE,68,5.0,6.0,20,0.00,,,0.00,WeatherCatV1.14B232,2013-06-04 19:41:00,
2013-06-04 13:46:00,78.7,33.0,29.67,North,8,2.0,7.0,19,0.00,,,0.00,WeatherCatV1.14B232,2013-06-04 19:46:00,
2013-06-04 13:51:00,78.6,32.9,29.67,West,273,4.0,11.0,19,0.00,,,0.00,WeatherCatV1.14B232,2013-06-04 19:51:00,
2013-06-04 13:56:00,79.4,32.2,29.67,WNW,283,3.0,4.0,18,0.00,,,0.00,WeatherCatV1.14B232,2013-06-04 19:56:00,
2013-06-04 14:01:00,79.6,32.3,29.66,NNW,340,3.0,9.0,18,0.00,,,0.00,WeatherCatV1.14B232,2013-06-04 20:01:00,
2013-06-04 14:06:00,80.4,31.6,29.66,WNW,295,6.0,22.0,17,0.00,,,0.00,WeatherCatV1.14B232,2013-06-04 20:06:00,
2013-06-04 14:11:00,80.6,33.2,29.66,West,271,5.0,9.0,18,0.00,,,0.00,WeatherCatV1.14B232,2013-06-04 20:11:00,
2013-06-04 14:16:00,80.8,31.9,29.66,NNE,16,8.0,15.0,17,0.00,,,0.00,WeatherCatV1.14B232,2013-06-04 20:16:00,
2013-06-04 14:21:00,80.1,31.3,29.66,South,188,1.0,11.0,17,0.00,,,0.00,WeatherCatV1.14B232,2013-06-04 20:21:00,
2013-06-04 14:26:00,80.5,33.1,29.65,North,1,6.0,11.0,18,0.00,,,0.00,WeatherCatV1.14B232,2013-06-04 20:26:00,
2013-06-04 14:31:00,80.6,33.2,29.65,NNW,344,11.0,17.0,18,0.00,,,0.00,WeatherCatV1.14B232,2013-06-04 20:31:00,
2013-06-04 14:36:00,80.5,31.7,29.65,NNW,335,11.0,15.0,17,0.00,,,0.00,WeatherCatV1.14B232,2013-06-04 20:36:00,
2013-06-04 14:41:00,80.8,33.3,29.65,West,280,3.0,8.0,18,0.00,,,0.00,WeatherCatV1.14B232,2013-06-04 20:41:00,
2013-06-04 14:46:00,81.0,34.8,29.65,NNE,29,5.0,8.0,19,0.00,,,0.00,WeatherCatV1.14B232,2013-06-04 20:46:00,
2013-06-04 14:51:00,81.4,30.9,29.66,North,357,5.0,19.0,16,0.00,,,0.00,WeatherCatV1.14B232,2013-06-04 20:51:00,
2013-06-04 14:56:00,81.5,32.5,29.66,NE,54,7.0,15.0,17,0.00,,,0.00,WeatherCatV1.14B232,2013-06-04 20:56:00,
2013-06-04 15:01:00,82.1,32.9,29.65,SW,236,4.0,11.0,17,0.00,,,0.00,WeatherCatV1.14B232,2013-06-04 21:01:00,
2013-06-04 15:06:00,82.3,33.1,29.65,NNW,346,7.0,10.0,17,0.00,,,0.00,WeatherCatV1.14B232,2013-06-04 21:06:00,
2013-06-04 15:11:00,82.1,32.9,29.64,NNW,329,9.0,12.0,17,0.00,,,0.00,WeatherCatV1.14B232,2013-06-04 21:11:00,
2013-06-04 15:16:00,82.0,31.4,29.64,WNW,286,3.0,9.0,16,0.00,,,0.00,WeatherCatV1.14B232,2013-06-04 21:16:00,
2013-06-04 15:21:00,82.0,32.9,29.65,North,354,4.0,8.0,17,0.00,,,0.00,WeatherCatV1.14B232,2013-06-04 21:21:00,
2013-06-04 15:26:00,82.2,35.8,29.65,ENE,70,4.0,7.0,19,0.00,,,0.00,WeatherCatV1.14B232,2013-06-04 21:26:00,
2013-06-04 15:31:00,82.3,31.6,29.64,NNW,345,2.0,4.0,16,0.00,,,0.00,WeatherCatV1.14B232,2013-06-04 21:31:00,
2013-06-04 15:36:00,82.5,31.8,29.64,NNE,25,4.0,10.0,16,0.00,,,0.00,WeatherCatV1.14B232,2013-06-04 21:36:00,
2013-06-04 15:41:00,82.7,30.3,29.64,North,356,3.0,11.0,15,0.00,,,0.00,WeatherCatV1.14B232,2013-06-04 21:41:00,
2013-06-04 15:46:00,82.8,32.0,29.63,NNW,337,5.0,8.0,16,0.00,,,0.00,WeatherCatV1.14B232,2013-06-04 21:46:00,
2013-06-04 15:51:00,82.3,31.6,29.63,NW,311,4.0,7.0,16,0.00,,,0.00,WeatherCatV1.14B232,2013-06-04 21:51:00,
2013-06-04 15:56:00,82.2,31.5,29.63,NNW,333,3.0,14.0,16,0.00,,,0.00,WeatherCatV1.14B232,2013-06-04 21:56:00,
2013-06-04 16:01:00,82.4,30.1,29.62,WSW,249,1.0,5.0,15,0.00,,,0.00,WeatherCatV1.14B232,2013-06-04 22:01:00,
2013-06-04 16:06:00,82.9,32.1,29.62,NW,322,4.0,10.0,16,0.00,,,0.00,WeatherCatV1.14B232,2013-06-04 22:06:00,
2013-06-04 16:11:00,82.8,32.0,29.63,West,262,6.0,6.0,16,0.00,,,0.00,WeatherCatV1.14B232,2013-06-04 22:11:00,
2013-06-04 16:16:00,82.9,32.1,29.62,NW,322,8.0,11.0,16,0.00,,,0.00,WeatherCatV1.14B232,2013-06-04 22:16:00,
2013-06-04 16:21:00,82.6,31.8,29.62,West,280,1.0,8.0,16,0.00,,,0.00,WeatherCatV1.14B232,2013-06-04 22:21:00,
2013-06-04 16:26:00,82.5,31.8,29.62,NNW,336,8.0,10.0,16,0.00,,,0.00,WeatherCatV1.14B232,2013-06-04 22:26:00,
2013-06-04 16:31:00,82.1,29.9,29.62,NNW,333,8.0,13.0,15,0.00,,,0.00,WeatherCatV1.14B232,2013-06-04 22:31:00,
2013-06-04 16:36:00,82.0,29.8,29.62,NNW,348,5.0,10.0,15,0.00,,,0.00,WeatherCatV1.14B232,2013-06-04 22:36:00,
2013-06-04 16:41:00,82.1,29.9,29.62,NW,307,1.0,9.0,15,0.00,,,0.00,WeatherCatV1.14B232,2013-06-04 22:41:00,
2013-06-04 16:46:00,82.3,31.6,29.62,WSW,241,8.0,8.0,16,0.00,,,0.00,WeatherCatV1.14B232,2013-06-04 22:46:00,
2013-06-04 16:51:00,81.9,28.0,29.62,WNW,285,3.0,9.0,14,0.00,,,0.00,WeatherCatV1.14B232,2013-06-04 22:51:00,
2013-06-04 16:56:00,82.1,28.2,29.62,SW,233,2.0,8.0,14,0.00,,,0.00,WeatherCatV1.14B232,2013-06-04 22:56:00,
2013-06-04 17:01:00,82.1,28.2,29.62,ENE,59,3.0,4.0,14,0.00,,,0.00,WeatherCatV1.14B232,2013-06-04 23:01:00,
2013-06-04 17:06:00,81.8,27.9,29.63,SW,231,1.0,8.0,14,0.00,,,0.00,WeatherCatV1.14B232,2013-06-04 23:06:00,
2013-06-04 17:11:00,81.0,30.6,29.62,SW,233,3.0,6.0,16,0.00,,,0.00,WeatherCatV1.14B232,2013-06-04 23:11:00,
2013-06-04 17:16:00,81.0,29.0,29.62,SE,141,1.0,5.0,15,0.00,,,0.00,WeatherCatV1.14B232,2013-06-04 23:16:00,
2013-06-04 17:21:00,81.4,29.3,29.61,North,353,3.0,7.0,15,0.00,,,0.00,WeatherCatV1.14B232,2013-06-04 23:21:00,
2013-06-04 17:26:00,81.3,29.2,29.61,WNW,283,3.0,6.0,15,0.00,,,0.00,WeatherCatV1.14B232,2013-06-04 23:26:00,
2013-06-04 17:31:00,81.0,29.0,29.61,WNW,301,2.0,5.0,15,0.00,,,0.00,WeatherCatV1.14B232,2013-06-04 23:31:00,
2013-06-04 17:36:00,80.5,28.6,29.62,West,278,4.0,7.0,15,0.00,,,0.00,WeatherCatV1.14B232,2013-06-04 23:36:00,
2013-06-04 17:41:00,80.5,26.9,29.61,West,276,4.0,10.0,14,0.00,,,0.00,WeatherCatV1.14B232,2013-06-04 23:41:00,
2013-06-04 17:46:00,80.6,28.7,29.61,West,259,4.0,5.0,15,0.00,,,0.00,WeatherCatV1.14B232,2013-06-04 23:46:00,
2013-06-04 17:51:00,80.9,30.5,29.61,NNW,328,5.0,5.0,16,0.00,,,0.00,WeatherCatV1.14B232,2013-06-04 23:51:00,
2013-06-04 17:56:00,81.0,30.6,29.61,West,263,6.0,7.0,16,0.00,,,0.00,WeatherCatV1.14B232,2013-06-04 23:56:00,
2013-06-04 18:01:00,80.5,26.9,29.61,WNW,294,2.0,7.0,14,0.00,,,0.00,WeatherCatV1.14B232,2013-06-05 00:01:00,
2013-06-04 18:06:00,80.0,26.5,29.61,WNW,288,2.0,6.0,14,0.00,,,0.00,WeatherCatV1.14B232,2013-06-05 00:06:00,
2013-06-04 18:11:00,79.9,28.1,29.61,WNW,290,2.0,6.0,15,0.00,,,0.00,WeatherCatV1.14B232,2013-06-05 00:11:00,
2013-06-04 18:16:00,80.3,28.4,29.61,NE,47,12.0,12.0,15,0.00,,,0.00,WeatherCatV1.14B232,2013-06-05 00:16:00,
2013-06-04 18:21:00,80.5,28.6,29.61,NE,40,7.0,7.0,15,0.00,,,0.00,WeatherCatV1.14B232,2013-06-05 00:21:00,
2013-06-04 18:26:00,80.6,28.7,29.61,West,281,2.0,11.0,15,0.00,,,0.00,WeatherCatV1.14B232,2013-06-05 00:26:00,
2013-06-04 18:31:00,80.5,30.2,29.61,NNW,334,3.0,7.0,16,0.00,,,0.00,WeatherCatV1.14B232,2013-06-05 00:31:00,
2013-06-04 18:36:00,80.7,28.7,29.61,NW,317,2.0,5.0,15,0.00,,,0.00,WeatherCatV1.14B232,2013-06-05 00:36:00,
2013-06-04 18:41:00,80.8,28.8,29.61,NNW,338,2.0,4.0,15,0.00,,,0.00,WeatherCatV1.14B232,2013-06-05 00:41:00,
2013-06-04 18:46:00,80.9,33.4,29.61,WSW,246,1.0,3.0,18,0.00,,,0.00,WeatherCatV1.14B232,2013-06-05 00:46:00,
2013-06-04 18:51:00,80.4,30.1,29.61,WNW,288,1.0,7.0,16,0.00,,,0.00,WeatherCatV1.14B232,2013-06-05 00:51:00,
2013-06-04 18:56:00,79.6,30.9,29.61,NNW,334,6.0,10.0,17,0.00,,,0.00,WeatherCatV1.14B232,2013-06-05 00:56:00,
2013-06-04 19:01:00,78.6,31.5,29.62,NNW,345,3.0,9.0,18,0.00,,,0.00,WeatherCatV1.14B232,2013-06-05 01:01:00,
2013-06-04 19:06:00,77.7,32.1,29.62,NW,308,4.0,6.0,19,0.00,,,0.00,WeatherCatV1.14B232,2013-06-05 01:06:00,
2013-06-04 19:11:00,77.2,31.7,29.62,NNW,335,6.0,8.0,19,0.00,,,0.00,WeatherCatV1.14B232,2013-06-05 01:11:00,
2013-06-04 19:16:00,76.5,34.8,29.63,West,281,1.0,2.0,22,0.00,,,0.00,WeatherCatV1.14B232,2013-06-05 01:16:00,
2013-06-04 19:21:00,75.6,34.1,29.63,West,267,1.0,2.0,22,0.00,,,0.00,WeatherCatV1.14B232,2013-06-05 01:21:00,
2013-06-04 19:26:00,75.2,33.7,29.63,WNW,285,0.0,2.0,22,0.00,,,0.00,WeatherCatV1.14B232,2013-06-05 01:26:00,
2013-06-04 19:31:00,75.0,32.4,29.63,NNW,333,1.0,2.0,21,0.00,,,0.00,WeatherCatV1.14B232,2013-06-05 01:31:00,
2013-06-04 19:36:00,74.7,33.3,29.64,WNW,284,0.0,1.0,22,0.00,,,0.00,WeatherCatV1.14B232,2013-06-05 01:36:00,
2013-06-04 19:41:00,74.1,33.9,29.64,WNW,302,0.0,1.0,23,0.00,,,0.00,WeatherCatV1.14B232,2013-06-05 01:41:00,
2013-06-04 19:46:00,73.4,34.4,29.64,WNW,302,0.0,0.0,24,0.00,,,0.00,WeatherCatV1.14B232,2013-06-05 01:46:00,
2013-06-04 19:51:00,72.8,33.9,29.64,WSW,252,0.0,1.0,24,0.00,,,0.00,WeatherCatV1.14B232,2013-06-05 01:51:00,
2013-06-04 19:56:00,72.2,33.4,29.64,West,260,0.0,1.0,24,0.00,,,0.00,WeatherCatV1.14B232,2013-06-05 01:56:00,
2013-06-04 20:01:00,71.8,34.1,29.65,WSW,249,2.0,3.0,25,0.00,,,0.00,WeatherCatV1.14B232,2013-06-05 02:01:00,
2013-06-04 20:06:00,71.9,33.1,29.65,North,351,2.0,3.0,24,0.00,,,0.00,WeatherCatV1.14B232,2013-06-05 02:06:00,
2013-06-04 20:11:00,72.0,32.2,29.65,NNW,336,0.0,7.0,23,0.00,,,0.00,WeatherCatV1.14B232,2013-06-05 02:11:00,
2013-06-04 20:16:00,72.2,31.2,29.65,West,265,2.0,4.0,22,0.00,,,0.00,WeatherCatV1.14B232,2013-06-05 02:16:00,
2013-06-04 20:21:00,73.0,30.8,29.66,WNW,291,2.0,8.0,21,0.00,,,0.00,WeatherCatV1.14B232,2013-06-05 02:21:00,
2013-06-04 20:26:00,73.3,31.0,29.66,WNW,295,4.0,5.0,21,0.00,,,0.00,WeatherCatV1.14B232,2013-06-05 02:26:00,
2013-06-04 20:31:00,73.8,31.4,29.66,WNW,291,1.0,5.0,21,0.00,,,0.00,WeatherCatV1.14B232,2013-06-05 02:31:00,
2013-06-04 20:36:00,73.5,30.0,29.66,North,357,2.0,6.0,20,0.00,,,0.00,WeatherCatV1.14B232,2013-06-05 02:36:00,
2013-06-04 20:41:00,73.3,29.8,29.66,NNW,341,5.0,10.0,20,0.00,,,0.00,WeatherCatV1.14B232,2013-06-05 02:41:00,
2013-06-04 20:46:00,73.4,29.9,29.67,West,261,2.0,9.0,20,0.00,,,0.00,WeatherCatV1.14B232,2013-06-05 02:46:00,
2013-06-04 20:51:00,73.1,30.8,29.68,NW,308,5.0,10.0,21,0.00,,,0.00,WeatherCatV1.14B232,2013-06-05 02:51:00,
2013-06-04 20:56:00,72.9,31.8,29.68,WNW,290,4.0,7.0,22,0.00,,,0.00,WeatherCatV1.14B232,2013-06-05 02:56:00,
2013-06-04 21:01:00,72.6,31.6,29.69,WNW,286,4.0,9.0,22,0.00,,,0.00,WeatherCatV1.14B232,2013-06-05 03:01:00,
2013-06-04 21:06:00,72.3,32.4,29.69,NE,44,4.0,5.0,23,0.00,,,0.00,WeatherCatV1.14B232,2013-06-05 03:06:00,
2013-06-04 21:11:00,71.9,32.1,29.69,NNW,333,3.0,3.0,23,0.00,,,0.00,WeatherCatV1.14B232,2013-06-05 03:11:00,
2013-06-04 21:16:00,71.7,31.9,29.70,WNW,294,4.0,5.0,23,0.00,,,0.00,WeatherCatV1.14B232,2013-06-05 03:16:00,
2013-06-04 21:21:00,71.7,31.9,29.70,NW,314,1.0,4.0,23,0.00,,,0.00,WeatherCatV1.14B232,2013-06-05 03:21:00,
2013-06-04 21:26:00,71.4,32.7,29.70,West,278,1.0,3.0,24,0.00,,,0.00,WeatherCatV1.14B232,2013-06-05 03:26:00,
2013-06-04 21:31:00,71.1,32.5,29.72,NW,309,10.0,13.0,24,0.00,,,0.00,WeatherCatV1.14B232,2013-06-05 03:31:00,
2013-06-04 21:36:00,71.8,32.0,29.70,WNW,295,3.0,5.0,23,0.00,,,0.00,WeatherCatV1.14B232,2013-06-05 03:36:00,
2013-06-04 21:41:00,71.9,32.1,29.70,WNW,297,0.0,0.0,23,0.00,,,0.00,WeatherCatV1.14B232,2013-06-05 03:41:00,
2013-06-04 21:46:00,71.6,32.9,29.69,WNW,296,0.0,1.0,24,0.00,,,0.00,WeatherCatV1.14B232,2013-06-05 03:46:00,
2013-06-04 21:51:00,71.0,32.4,29.68,SE,145,0.0,1.0,24,0.00,,,0.00,WeatherCatV1.14B232,2013-06-05 03:51:00,
2013-06-04 21:56:00,70.3,33.8,29.68,SW,236,2.0,2.0,26,0.00,,,0.00,WeatherCatV1.14B232,2013-06-05 03:56:00,
2013-06-04 22:01:00,69.5,34.0,29.68,South,176,0.0,0.0,27,0.00,,,0.00,WeatherCatV1.14B232,2013-06-05 04:01:00,
2013-06-04 22:02:00,69.3,34.8,29.68,South,176,0.0,0.0,28,0.00,,,0.00,WeatherCatV1.14B232,2013-06-05 04:02:00,
2013-06-04 22:07:00,68.2,34.7,29.69,WNW,293,0.0,0.0,29,0.00,,,0.00,WeatherCatV1.14B232,2013-06-05 04:07:00,
2013-06-04 22:09:00,67.6,34.2,29.69,WNW,293,0.0,0.0,29,0.00,,,0.00,WeatherCatV1.14B232,2013-06-05 04:09:00,
2013-06-04 22:14:00,66.7,35.1,29.69,SW,236,1.0,1.0,31,0.00,,,0.00,WeatherCatV1.14B232,2013-06-05 04:14:00,
2013-06-04 22:19:00,65.1,36.0,29.70,SSW,207,3.0,4.0,34,0.00,,,0.00,WeatherCatV1.14B232,2013-06-05 04:19:00,
2013-06-04 22:24:00,64.1,36.6,29.70,South,179,3.0,3.0,36,0.00,,,0.00,WeatherCatV1.14B232,2013-06-05 04:24:00,
2013-06-04 22:29:00,63.7,36.2,29.70,South,179,2.0,3.0,36,0.00,,,0.00,WeatherCatV1.14B232,2013-06-05 04:29:00,
2013-06-04 22:34:00,63.2,36.5,29.70,SSE,155,0.0,2.0,37,0.00,,,0.00,WeatherCatV1.14B232,2013-06-05 04:34:00,
2013-06-04 22:39:00,62.9,36.9,29.72,West,259,1.0,2.0,38,0.00,,,0.00,WeatherCatV1.14B232,2013-06-05 04:39:00,
2013-06-04 22:44:00,63.5,35.4,29.74,West,277,2.0,2.0,35,0.00,,,0.00,WeatherCatV1.14B232,2013-06-05 04:44:00,
2013-06-04 22:49:00,64.1,32.8,29.73,NNE,26,8.0,12.0,31,0.00,,,0.00,WeatherCatV1.14B232,2013-06-05 04:49:00,
2013-06-04 22:54:00,65.1,35.3,29.73,WNW,302,0.0,4.0,33,0.00,,,0.00,WeatherCatV1.14B232,2013-06-05 04:54:00,
2013-06-04 22:59:00,65.4,34.8,29.75,North,350,0.0,5.0,32,0.00,,,0.00,WeatherCatV1.14B232,2013-06-05 04:59:00,
2013-06-04 23:04:00,67.0,34.5,29.73,SSE,166,2.0,16.0,30,0.00,,,0.00,WeatherCatV1.14B232,2013-06-05 05:04:00,
2013-06-04 23:09:00,67.9,33.6,29.72,SW,228,2.0,4.0,28,0.00,,,0.00,WeatherCatV1.14B232,2013-06-05 05:09:00,
2013-06-04 23:14:00,68.2,33.8,29.72,NW,322,3.0,3.0,28,0.00,,,0.00,WeatherCatV1.14B232,2013-06-05 05:14:00,
2013-06-04 23:19:00,67.7,34.3,29.74,WNW,302,2.0,4.0,29,0.00,,,0.00,WeatherCatV1.14B232,2013-06-05 05:19:00,
2013-06-04 23:24:00,66.9,35.3,29.74,ENE,57,1.0,2.0,31,0.00,,,0.00,WeatherCatV1.14B232,2013-06-05 05:24:00,
2013-06-04 23:29:00,66.4,34.8,29.74,ENE,71,0.0,1.0,31,0.00,,,0.00,WeatherCatV1.14B232,2013-06-05 05:29:00,
2013-06-04 23:34:00,66.1,35.4,29.74,NNW,335,0.0,0.0,32,0.00,,,0.00,WeatherCatV1.14B232,2013-06-05 05:34:00,
2013-06-04 23:39:00,65.4,35.5,29.73,NNE,29,2.0,4.0,33,0.00,,,0.00,WeatherCatV1.14B232,2013-06-05 05:39:00,
2013-06-04 23:44:00,65.4,35.5,29.73,NNE,12,4.0,4.0,33,0.00,,,0.00,WeatherCatV1.14B232,2013-06-05 05:44:00,
2013-06-04 23:49:00,65.9,35.2,29.73,NE,54,1.0,1.0,32,0.00,,,0.00,WeatherCatV1.14B232,2013-06-05 05:49:00,
2013-06-04 23:54:00,65.9,35.2,29.73,NW,309,1.0,3.0,32,0.00,,,0.00,WeatherCatV1.14B232,2013-06-05 05:54:00,
2013-06-04 23:59:00,65.4,35.5,29.74,SW,225,1.0,2.0,33,0.00,,,0.00,WeatherCatV1.14B232,2013-06-05 05:59:00,